createdAt,value
2022-08-30T00:00:24.273Z,99709.50
2022-08-30T00:02:50.733Z,99688.91
2022-08-30T00:05:17.519Z,99689.63
2022-08-30T00:07:43.850Z,99690.44
2022-08-30T00:10:10.662Z,99690.78
2022-08-30T00:12:37.088Z,99689.34
2022-08-30T00:15:05.230Z,99698.00
2022-08-30T00:17:31.635Z,99698.22
2022-08-30T00:19:58.227Z,99687.22
2022-08-30T00:22:25.054Z,99687.56
2022-08-30T00:24:51.715Z,99693.72
2022-08-30T00:27:18.726Z,99679.22
2022-08-30T00:29:45.270Z,99683.91
2022-08-30T00:32:11.645Z,99682.53
2022-08-30T00:34:38.348Z,99698.91
2022-08-30T00:37:04.809Z,99706.03
2022-08-30T00:39:31.135Z,99706.34
2022-08-30T00:41:57.552Z,99700.56
2022-08-30T00:44:24.285Z,99695.38
2022-08-30T00:46:50.660Z,99704.25
2022-08-30T00:49:17.500Z,99699.28
2022-08-30T00:51:44.602Z,99680.50
2022-08-30T00:54:11.868Z,99691.34
2022-08-30T00:56:38.257Z,99705.31
2022-08-30T00:59:06.084Z,99705.09
2022-08-30T01:01:34.107Z,99700.44
2022-08-30T01:04:00.885Z,99704.91
2022-08-30T01:06:32.481Z,99715.91
2022-08-30T01:09:01.498Z,99724.91
2022-08-30T01:11:28.933Z,99717.19
2022-08-30T01:13:55.776Z,99714.97
2022-08-30T01:16:23.204Z,99711.91
2022-08-30T01:18:52.572Z,99721.41
2022-08-30T01:21:27.307Z,99711.16
2022-08-30T01:23:57.147Z,99721.41
2022-08-30T01:26:25.110Z,99678.75
2022-08-30T01:28:55.647Z,99715.81
2022-08-30T01:31:22.452Z,99710.84
2022-08-30T01:33:49.086Z,99706.09
2022-08-30T01:36:15.724Z,99714.13
2022-08-30T01:38:47.712Z,99719.97
2022-08-30T01:41:20.660Z,99707.16
2022-08-30T01:43:48.491Z,99704.41
2022-08-30T01:46:17.395Z,99710.66
2022-08-30T01:48:53.069Z,99711.38
2022-08-30T01:51:23.414Z,99713.19
2022-08-30T01:53:49.978Z,99715.31
2022-08-30T01:56:16.890Z,99712.56
2022-08-30T01:58:44.061Z,99713.81
2022-08-30T02:01:13.800Z,99714.66
2022-08-30T02:03:42.853Z,99718.47
2022-08-30T02:06:13.287Z,99712.22
2022-08-30T02:08:40.925Z,99712.53
2022-08-30T02:11:08.300Z,99705.69
2022-08-30T02:13:35.465Z,99698.47
2022-08-30T02:16:01.857Z,99705.22
2022-08-30T02:18:28.610Z,99694.34
2022-08-30T02:20:55.190Z,99693.47
2022-08-30T02:23:21.853Z,99703.09
2022-08-30T02:25:48.700Z,99701.97
2022-08-30T02:28:15.093Z,99693.47
2022-08-30T02:30:42.795Z,99699.63
2022-08-30T02:33:09.580Z,99692.22
2022-08-30T02:35:36.004Z,99693.16
2022-08-30T02:38:02.396Z,99687.78
2022-08-30T02:40:28.804Z,99690.00
2022-08-30T02:42:55.565Z,99687.78
2022-08-30T02:45:24.835Z,99691.56
2022-08-30T02:47:51.476Z,99695.69
2022-08-30T02:50:18.397Z,99694.72
2022-08-30T02:52:48.317Z,99675.59
2022-08-30T02:55:15.763Z,99690.81
2022-08-30T02:57:42.370Z,99689.22
2022-08-30T03:00:11.033Z,99694.19
2022-08-30T03:02:37.697Z,99693.47
2022-08-30T03:05:04.802Z,99688.81
2022-08-30T03:07:31.138Z,99681.47
2022-08-30T03:09:57.818Z,99695.34
2022-08-30T03:12:24.342Z,99688.44
2022-08-30T03:14:51.457Z,99689.50
2022-08-30T03:17:18.306Z,99692.13
2022-08-30T03:19:44.915Z,99696.56
2022-08-30T03:22:12.215Z,99690.47
2022-08-30T03:24:38.917Z,99675.88
2022-08-30T03:27:05.488Z,99678.31
2022-08-30T03:29:31.936Z,99670.78
2022-08-30T03:31:58.332Z,99680.63
2022-08-30T03:34:26.126Z,99684.00
2022-08-30T03:36:54.862Z,99692.34
2022-08-30T03:39:22.444Z,99696.03
2022-08-30T03:41:49.470Z,99696.97
2022-08-30T03:44:16.011Z,99690.41
2022-08-30T03:46:42.757Z,99697.78
2022-08-30T03:49:09.535Z,99694.41
2022-08-30T03:51:35.972Z,99706.00
2022-08-30T03:54:02.365Z,99705.28
2022-08-30T03:56:28.772Z,99700.50
2022-08-30T03:58:55.549Z,99700.41
2022-08-30T04:01:22.021Z,99695.97
2022-08-30T04:03:48.382Z,99700.59
2022-08-30T04:06:14.909Z,99691.81
2022-08-30T04:08:42.006Z,99713.69
2022-08-30T04:11:08.859Z,99708.13
2022-08-30T04:13:35.277Z,99705.59
2022-08-30T04:16:01.866Z,99697.16
2022-08-30T04:18:28.212Z,99715.13
2022-08-30T04:20:55.003Z,99718.41
2022-08-30T04:23:21.441Z,99710.78
2022-08-30T04:25:48.190Z,99717.09
2022-08-30T04:28:14.989Z,99728.50
2022-08-30T04:30:44.753Z,99735.94
2022-08-30T04:33:13.407Z,99721.81
2022-08-30T04:35:42.116Z,99716.94
2022-08-30T04:38:08.737Z,99731.25
2022-08-30T04:40:35.469Z,99731.25
2022-08-30T04:43:02.430Z,99726.50
2022-08-30T04:45:28.869Z,99696.97
2022-08-30T04:47:56.575Z,99723.53
2022-08-30T04:50:23.784Z,99728.69
2022-08-30T04:52:50.546Z,99729.63
2022-08-30T04:55:20.193Z,99727.78
2022-08-30T04:57:46.894Z,99738.13
2022-08-30T05:00:14.209Z,99735.59
2022-08-30T05:02:41.168Z,99746.78
2022-08-30T05:05:09.546Z,99741.69
2022-08-30T05:07:36.700Z,99745.56
2022-08-30T05:10:11.135Z,99735.72
2022-08-30T05:12:38.247Z,99740.63
2022-08-30T05:15:05.118Z,99738.28
2022-08-30T05:17:31.700Z,99743.44
2022-08-30T05:19:58.305Z,99743.34
2022-08-30T05:22:24.732Z,99744.16
2022-08-30T05:24:51.068Z,99749.25
2022-08-30T05:27:17.987Z,99741.41
2022-08-30T05:29:46.769Z,99738.78
2022-08-30T05:32:13.154Z,99738.47
2022-08-30T05:34:39.728Z,99749.66
2022-08-30T05:37:06.200Z,99753.81
2022-08-30T05:39:51.477Z,99755.28
2022-08-30T05:42:18.411Z,99764.81
2022-08-30T05:44:44.795Z,99748.63
2022-08-30T05:47:11.207Z,99759.09
2022-08-30T05:49:37.588Z,99749.56
2022-08-30T05:52:04.504Z,99757.63
2022-08-30T05:54:31.064Z,99756.47
2022-08-30T05:57:00.573Z,99746.19
2022-08-30T05:59:26.945Z,99745.97
2022-08-30T06:01:57.351Z,99742.16
2022-08-30T06:04:24.792Z,99752.47
2022-08-30T06:06:51.251Z,99751.31
2022-08-30T06:09:18.204Z,99762.13
2022-08-30T06:11:46.821Z,99757.34
2022-08-30T06:14:14.598Z,99759.06
2022-08-30T06:16:41.405Z,99754.31
2022-08-30T06:19:09.318Z,99765.63
2022-08-30T06:21:36.908Z,99769.53
2022-08-30T06:24:05.889Z,99754.19
2022-08-30T06:29:07.645Z,99761.81
2022-08-30T06:31:34.891Z,99751.66
2022-08-30T06:34:01.429Z,99745.09
2022-08-30T06:36:28.457Z,99758.06
2022-08-30T06:39:15.904Z,99755.50
2022-08-30T06:41:43.477Z,99740.22
2022-08-30T06:44:16.171Z,99749.09
2022-08-30T06:46:42.565Z,99735.44
2022-08-30T06:49:09.145Z,99743.53
2022-08-30T06:51:39.743Z,99738.84
2022-08-30T06:54:09.202Z,99746.75
2022-08-30T06:56:37.308Z,99734.13
2022-08-30T06:59:04.494Z,99736.31
2022-08-30T07:01:31.874Z,99735.03
2022-08-30T07:03:58.967Z,99731.06
2022-08-30T07:06:26.960Z,99720.13
2022-08-30T07:08:56.404Z,99738.34
2022-08-30T07:11:35.381Z,99743.69
2022-08-30T07:14:06.072Z,99737.69
2022-08-30T07:16:32.879Z,99744.94
2022-08-30T07:19:00.322Z,99754.34
2022-08-30T07:21:34.622Z,99753.78
2022-08-30T07:24:01.575Z,99748.25
2022-08-30T07:26:34.893Z,99743.31
2022-08-30T07:29:01.903Z,99748.00
2022-08-30T07:31:31.045Z,99748.00
2022-08-30T07:33:59.017Z,99750.25
2022-08-30T07:36:25.890Z,99736.66
2022-08-30T07:38:55.286Z,99746.91
2022-08-30T07:41:29.489Z,99729.75
2022-08-30T07:43:56.877Z,99731.44
2022-08-30T07:46:24.782Z,99739.53
2022-08-30T07:48:52.017Z,99745.06
2022-08-30T07:51:21.661Z,99726.06
2022-08-30T07:53:48.194Z,99736.59
2022-08-30T07:56:14.919Z,99730.03
2022-08-30T07:58:41.927Z,99730.97
2022-08-30T08:01:10.578Z,99732.28
2022-08-30T08:06:25.002Z,99692.06
2022-08-30T08:08:58.824Z,99683.13
2022-08-30T08:11:31.586Z,99724.00
2022-08-30T08:14:00.504Z,99733.81
2022-08-30T08:16:29.100Z,99734.13
2022-08-30T08:18:56.235Z,99731.72
2022-08-30T08:21:26.765Z,99721.75
2022-08-30T08:23:53.572Z,99739.13
2022-08-30T08:26:20.576Z,99733.63
2022-08-30T08:28:47.785Z,99726.75
2022-08-30T08:31:16.011Z,99737.25
2022-08-30T08:33:42.503Z,99728.25
2022-08-30T08:36:09.558Z,99717.13
2022-08-30T08:38:36.332Z,99717.16
2022-08-30T08:41:25.760Z,99726.84
2022-08-30T08:43:52.198Z,99720.63
2022-08-30T08:46:39.979Z,99719.75
2022-08-30T08:49:11.893Z,99713.19
2022-08-30T08:51:40.031Z,99717.88
2022-08-30T08:54:14.999Z,99718.91
2022-08-30T08:56:41.636Z,99713.75
2022-08-30T08:59:10.783Z,99711.63
2022-08-30T09:01:40.406Z,99713.88
2022-08-30T09:04:16.711Z,99711.81
2022-08-30T09:06:57.045Z,99699.72
2022-08-30T09:09:27.945Z,99713.03
2022-08-30T09:11:54.379Z,99695.03
2022-08-30T09:14:30.272Z,99715.94
2022-08-30T09:17:02.924Z,99711.47
2022-08-30T09:19:54.383Z,99706.44
2022-08-30T09:22:46.775Z,99713.50
2022-08-30T09:25:14.639Z,99717.72
2022-08-30T09:27:47.422Z,99703.34
2022-08-30T09:30:21.257Z,99685.25
2022-08-30T09:32:54.202Z,99700.25
2022-08-30T09:35:41.638Z,99694.50
2022-08-30T09:38:18.097Z,99692.91
2022-08-30T09:40:51.160Z,99692.00
2022-08-30T09:43:20.759Z,99684.31
2022-08-30T09:46:00.899Z,99679.00
2022-08-30T09:48:41.013Z,99686.66
2022-08-30T09:51:10.390Z,99683.34
2022-08-30T09:57:12.603Z,99675.88
2022-08-30T10:00:00.533Z,99675.69
2022-08-30T10:02:48.321Z,99679.59
2022-08-30T10:05:36.446Z,99670.94
2022-08-30T10:08:05.824Z,99669.16
2022-08-30T10:10:46.761Z,99665.91
2022-08-30T10:13:49.302Z,99659.69
2022-08-30T10:16:40.844Z,99663.00
2022-08-30T10:19:38.293Z,99665.81
2022-08-30T10:22:18.412Z,99656.31
2022-08-30T10:24:50.352Z,99657.63
2022-08-30T10:27:28.882Z,99658.56
2022-08-30T10:30:10.042Z,99656.16
2022-08-30T10:32:46.642Z,99651.97
2022-08-30T10:35:22.673Z,99645.03
2022-08-30T10:38:27.037Z,99646.66
2022-08-30T10:41:07.376Z,99649.72
2022-08-30T10:43:45.657Z,99642.41
2022-08-30T10:46:25.316Z,99642.88
2022-08-30T10:48:53.962Z,99627.75
2022-08-30T10:51:29.328Z,99635.56
2022-08-30T10:54:08.589Z,99636.81
2022-08-30T10:56:40.530Z,99636.81
2022-08-30T10:59:07.613Z,99634.25
2022-08-30T11:02:18.046Z,99631.69
2022-08-30T11:04:56.578Z,99640.75
2022-08-30T11:07:41.873Z,99638.19
2022-08-30T11:10:25.840Z,99634.63
2022-08-30T11:13:04.694Z,99638.81
2022-08-30T11:15:57.525Z,99636.66
2022-08-30T11:18:26.107Z,99630.47
2022-08-30T11:21:15.025Z,99630.41
2022-08-30T11:23:41.954Z,99622.53
2022-08-30T11:26:32.397Z,99624.31
2022-08-30T11:28:59.002Z,99636.00
2022-08-30T11:31:33.624Z,99629.16
2022-08-30T11:34:01.118Z,99631.56
2022-08-30T11:36:37.350Z,99626.53
2022-08-30T11:39:42.192Z,99619.28
2022-08-30T11:42:24.970Z,99626.69
2022-08-30T11:45:25.485Z,99625.75
2022-08-30T11:48:08.427Z,99619.66
2022-08-30T11:50:54.489Z,99616.31
2022-08-30T11:53:43.449Z,99610.69
2022-08-30T11:56:21.521Z,99615.88
2022-08-30T11:59:01.779Z,99613.25
2022-08-30T12:01:50.537Z,99616.44
2022-08-30T12:04:17.519Z,99611.75
2022-08-30T12:06:46.993Z,99613.25
2022-08-30T12:09:25.287Z,99613.00
2022-08-30T12:11:57.658Z,99610.75
2022-08-30T12:14:33.139Z,99604.81
2022-08-30T12:17:01.494Z,99608.16
2022-08-30T12:19:30.146Z,99603.44
2022-08-30T12:22:01.042Z,99601.47
2022-08-30T12:24:41.056Z,99590.97
2022-08-30T12:27:32.590Z,99593.59
2022-08-30T12:30:08.797Z,99600.44
2022-08-30T12:32:45.868Z,99591.91
2022-08-30T12:35:22.276Z,99585.66
2022-08-30T12:37:59.997Z,99586.75
2022-08-30T12:40:27.272Z,99579.06
2022-08-30T12:43:02.781Z,99581.00
2022-08-30T12:45:34.011Z,99573.66
2022-08-30T12:48:11.733Z,99578.78
2022-08-30T12:50:43.954Z,99579.94
2022-08-30T12:53:14.277Z,99560.78
2022-08-30T12:56:06.178Z,99564.19
2022-08-30T12:58:42.469Z,99562.28
2022-08-30T13:01:24.546Z,99560.31
2022-08-30T13:04:20.557Z,99559.03
2022-08-30T13:07:01.767Z,99562.59
2022-08-30T13:09:32.986Z,99576.00
2022-08-30T13:12:01.817Z,99565.69
2022-08-30T13:14:38.117Z,99569.81
2022-08-30T13:17:10.770Z,99574.75
2022-08-30T13:19:43.421Z,99571.78
2022-08-30T13:22:38.070Z,99561.06
2022-08-30T13:25:06.068Z,99554.25
2022-08-30T13:27:36.824Z,99555.97
2022-08-30T13:30:15.507Z,99551.88
2022-08-30T13:32:42.775Z,99549.19
2022-08-30T13:35:10.222Z,99561.75
2022-08-30T13:37:47.240Z,99547.09
2022-08-30T13:40:17.120Z,99544.31
2022-08-30T13:42:45.131Z,99549.59
2022-08-30T13:48:01.555Z,99542.56
2022-08-30T13:50:28.191Z,99541.72
2022-08-30T13:52:56.803Z,99545.75
2022-08-30T13:55:23.265Z,99536.84
2022-08-30T13:57:57.323Z,99539.13
2022-08-30T14:00:25.503Z,99539.72
2022-08-30T14:02:54.654Z,99532.59
2022-08-30T14:11:00.103Z,99533.75
2022-08-30T14:13:27.112Z,99539.47
2022-08-30T14:18:44.321Z,99535.53
2022-08-30T14:21:10.794Z,99537.06
2022-08-30T14:23:37.111Z,99525.81
2022-08-30T14:26:09.951Z,99535.59
2022-08-30T14:28:36.261Z,99531.53
2022-08-30T14:31:03.146Z,99524.47
2022-08-30T14:33:29.520Z,99522.94
2022-08-30T14:35:56.246Z,99516.59
2022-08-30T14:38:22.700Z,99515.56
2022-08-30T14:40:49.289Z,99523.41
2022-08-30T14:43:15.927Z,99521.78
2022-08-30T14:45:42.778Z,99521.88
2022-08-30T14:48:11.571Z,99526.06
2022-08-30T14:50:39.256Z,99520.72
2022-08-30T14:53:06.769Z,99526.41
2022-08-30T14:55:34.879Z,99524.06
2022-08-30T14:58:01.971Z,99528.66
2022-08-30T15:00:30.438Z,99518.88
2022-08-30T15:02:57.084Z,99518.69
2022-08-30T15:05:23.506Z,99517.63
2022-08-30T15:07:50.880Z,99522.25
2022-08-30T15:10:18.838Z,99521.59
2022-08-30T15:12:49.868Z,99507.28
2022-08-30T15:15:19.513Z,99513.22
2022-08-30T15:17:48.135Z,99508.13
2022-08-30T15:20:16.300Z,99512.09
2022-08-30T15:22:42.705Z,99498.94
2022-08-30T15:25:13.230Z,99506.56
2022-08-30T15:27:39.657Z,99499.25
2022-08-30T15:30:08.360Z,99493.28
2022-08-30T15:32:37.503Z,99506.66
2022-08-30T15:35:04.890Z,99504.00
2022-08-30T15:37:34.242Z,99501.53
2022-08-30T15:40:01.220Z,99509.09
2022-08-30T15:42:31.095Z,99501.75
2022-08-30T15:44:57.610Z,99509.44
2022-08-30T15:47:24.049Z,99494.50
2022-08-30T15:50:02.590Z,99492.75
2022-08-30T15:52:30.345Z,99506.03
2022-08-30T15:54:56.991Z,99502.88
2022-08-30T15:57:23.468Z,99494.22
2022-08-30T15:59:50.405Z,99485.91
2022-08-30T16:02:17.262Z,99504.00
2022-08-30T16:04:43.894Z,99484.69
2022-08-30T16:07:10.308Z,99490.81
2022-08-30T16:09:38.368Z,99494.25
2022-08-30T16:12:06.406Z,99499.53
2022-08-30T16:14:33.503Z,99491.75
2022-08-30T16:16:59.836Z,99495.09
2022-08-30T16:19:26.663Z,99484.63
2022-08-30T16:21:53.009Z,99486.75
2022-08-30T16:24:22.838Z,99479.78
2022-08-30T16:26:49.725Z,99478.03
2022-08-30T16:29:16.190Z,99474.97
2022-08-30T16:31:43.833Z,99470.69
2022-08-30T16:34:13.068Z,99482.06
2022-08-30T16:36:39.616Z,99474.94
2022-08-30T16:39:08.471Z,99486.09
2022-08-30T16:41:36.380Z,99477.28
2022-08-30T16:44:03.790Z,99480.59
2022-08-30T16:46:33.347Z,99484.03
2022-08-30T16:49:00.679Z,99487.47
2022-08-30T16:51:29.475Z,99471.78
2022-08-30T16:53:57.886Z,99490.53
2022-08-30T16:56:26.747Z,99485.06
2022-08-30T16:59:00.838Z,99487.47
2022-08-30T17:01:29.471Z,99470.69
2022-08-30T17:03:55.861Z,99474.31
2022-08-30T17:06:22.649Z,99470.75
2022-08-30T17:08:49.322Z,99479.81
2022-08-30T17:11:22.289Z,99484.00
2022-08-30T17:13:49.221Z,99486.31
2022-08-30T17:16:17.389Z,99480.97
2022-08-30T17:18:53.995Z,99483.31
2022-08-30T17:21:20.561Z,99495.22
2022-08-30T17:23:48.389Z,99477.31
2022-08-30T17:26:16.151Z,99504.69
2022-08-30T17:28:42.902Z,99513.81
2022-08-30T17:31:11.098Z,99514.97
2022-08-30T17:33:37.824Z,99517.72
2022-08-30T17:36:09.096Z,99526.69
2022-08-30T17:38:35.434Z,99521.00
2022-08-30T17:41:09.314Z,99530.59
2022-08-30T17:43:37.820Z,99537.81
2022-08-30T17:46:07.119Z,99530.97
2022-08-30T17:48:34.334Z,99537.38
2022-08-30T17:51:02.133Z,99533.34
2022-08-30T17:53:29.613Z,99537.53
2022-08-30T17:55:56.113Z,99536.88
2022-08-30T17:58:25.144Z,99540.94
2022-08-30T18:00:51.504Z,99542.59
2022-08-30T18:03:18.191Z,99548.81
2022-08-30T18:05:44.580Z,99538.78
2022-08-30T18:08:14.099Z,99549.84
2022-08-30T18:10:40.474Z,99549.53
2022-08-30T18:13:06.859Z,99544.31
2022-08-30T18:15:33.973Z,99547.50
2022-08-30T18:18:00.578Z,99553.03
2022-08-30T18:20:26.914Z,99550.19
2022-08-30T18:22:57.662Z,99556.22
2022-08-30T18:25:24.091Z,99556.81
2022-08-30T18:27:58.198Z,99562.88
2022-08-30T18:30:29.886Z,99566.19
2022-08-30T18:33:00.188Z,99572.22
2022-08-30T18:35:27.268Z,99563.50
2022-08-30T18:37:53.582Z,99568.50
2022-08-30T18:40:20.284Z,99569.13
2022-08-30T18:42:47.641Z,99578.38
2022-08-30T18:45:15.077Z,99575.31
2022-08-30T18:47:42.567Z,99591.88
2022-08-30T18:50:09.305Z,99586.97
2022-08-30T18:52:35.727Z,99595.50
2022-08-30T18:55:02.487Z,99596.81
2022-08-30T18:57:28.874Z,99570.31
2022-08-30T18:59:57.451Z,99586.53
2022-08-30T19:02:27.504Z,99593.19
2022-08-30T19:04:54.416Z,99600.88
2022-08-30T19:07:20.870Z,99600.84
2022-08-30T19:09:53.539Z,99606.06
2022-08-30T19:12:20.444Z,99606.84
2022-08-30T19:14:47.376Z,99601.28
2022-08-30T19:17:14.089Z,99605.13
2022-08-30T19:19:48.295Z,99615.81
2022-08-30T19:22:15.772Z,99603.34
2022-08-30T19:24:42.098Z,99603.84
2022-08-30T19:27:09.975Z,99616.38
2022-08-30T19:29:36.315Z,99611.34
2022-08-30T19:32:03.547Z,99602.56
2022-08-30T19:34:30.256Z,99604.94
2022-08-30T19:36:56.818Z,99612.13
2022-08-30T19:39:23.938Z,99606.72
2022-08-30T19:41:50.626Z,99623.78
2022-08-30T19:44:16.958Z,99618.25
2022-08-30T19:46:44.610Z,99610.53
2022-08-30T19:49:11.456Z,99610.38
2022-08-30T19:51:39.964Z,99617.25
2022-08-30T19:54:13.565Z,99608.53
2022-08-30T19:56:40.390Z,99607.50
2022-08-30T19:59:06.709Z,99614.81
2022-08-30T20:01:33.943Z,99616.50
2022-08-30T20:04:01.178Z,99617.63
2022-08-30T20:06:28.155Z,99626.09
2022-08-30T20:08:56.779Z,99619.00
2022-08-30T20:11:24.606Z,99620.91
2022-08-30T20:13:51.190Z,99607.41
2022-08-30T20:16:17.678Z,99621.66
2022-08-30T20:18:45.330Z,99626.63
2022-08-30T20:21:13.563Z,99634.44
2022-08-30T20:23:40.846Z,99616.78
2022-08-30T20:26:08.213Z,99626.47
2022-08-30T20:28:34.983Z,99620.44
2022-08-30T20:31:03.993Z,99613.25
2022-08-30T20:33:30.406Z,99601.56
2022-08-30T20:36:00.804Z,99620.09
2022-08-30T20:38:27.974Z,99624.34
2022-08-30T20:40:57.347Z,99631.84
2022-08-30T20:43:26.705Z,99625.66
2022-08-30T20:45:54.277Z,99616.00
2022-08-30T20:48:21.961Z,99626.56
2022-08-30T20:50:48.634Z,99626.97
2022-08-30T20:53:16.215Z,99613.66
2022-08-30T20:55:45.373Z,99623.50
2022-08-30T20:58:12.266Z,99621.41
2022-08-30T21:00:38.953Z,99628.13
2022-08-30T21:03:08.288Z,99622.78
2022-08-30T21:05:53.048Z,99625.44
2022-08-30T21:08:19.441Z,99630.94
2022-08-30T21:10:46.045Z,99618.34
2022-08-30T21:13:12.436Z,99617.81
2022-08-30T21:15:39.007Z,99624.25
2022-08-30T21:18:06.053Z,99636.22
2022-08-30T21:20:32.522Z,99634.97
2022-08-30T21:22:59.132Z,99647.34
2022-08-30T21:25:25.784Z,99638.63
2022-08-30T21:27:52.184Z,99642.97
2022-08-30T21:30:18.610Z,99628.69
2022-08-30T21:32:45.032Z,99637.25
2022-08-30T21:35:11.420Z,99629.41
2022-08-30T21:37:37.957Z,99637.09
2022-08-30T21:40:04.847Z,99638.13
2022-08-30T21:42:31.264Z,99644.13
2022-08-30T21:44:57.662Z,99641.75
2022-08-30T21:47:24.307Z,99654.81
2022-08-30T21:49:50.640Z,99657.06
2022-08-30T21:52:17.060Z,99649.66
2022-08-30T21:54:43.380Z,99646.56
2022-08-30T21:57:09.702Z,99640.81
2022-08-30T21:59:36.416Z,99646.44
2022-08-30T22:02:02.840Z,99642.50
2022-08-30T22:04:29.508Z,99657.38
2022-08-30T22:06:55.921Z,99647.94
2022-08-30T22:09:24.710Z,99664.81
2022-08-30T22:11:51.199Z,99662.13
2022-08-30T22:14:19.005Z,99665.34
2022-08-30T22:16:45.694Z,99654.09
2022-08-30T22:19:12.419Z,99678.81
2022-08-30T22:21:39.621Z,99651.88
2022-08-30T22:24:06.071Z,99665.19
2022-08-30T22:26:33.688Z,99671.06
2022-08-30T22:29:00.793Z,99676.25
2022-08-30T22:31:27.690Z,99667.28
2022-08-30T22:33:54.554Z,99672.06
2022-08-30T22:36:32.639Z,99673.19
2022-08-30T22:39:00.737Z,99672.19
2022-08-30T22:41:31.467Z,99678.81
2022-08-30T22:43:58.535Z,99663.38
2022-08-30T22:46:33.629Z,99672.22
2022-08-30T22:49:02.031Z,99684.72
2022-08-30T22:51:28.357Z,99681.75
2022-08-30T22:53:54.748Z,99676.84
2022-08-30T22:56:24.038Z,99697.06
2022-08-30T22:58:51.455Z,99699.13
2022-08-30T23:01:29.875Z,99697.03
2022-08-30T23:03:57.532Z,99693.09
2022-08-30T23:06:24.825Z,99693.50
2022-08-30T23:08:51.436Z,99689.72
2022-08-30T23:11:18.260Z,99688.03
2022-08-30T23:13:45.680Z,99693.50
2022-08-30T23:16:14.011Z,99693.63
2022-08-30T23:18:44.185Z,99692.06
2022-08-30T23:21:20.598Z,99693.19
2022-08-30T23:23:47.688Z,99691.66
2022-08-30T23:26:14.123Z,99693.59
2022-08-30T23:28:40.698Z,99691.63
2022-08-30T23:31:14.247Z,99691.88
2022-08-30T23:33:40.677Z,99697.47
2022-08-30T23:36:09.586Z,99698.59
2022-08-30T23:38:36.425Z,99685.53
2022-08-30T23:41:02.883Z,99691.53
2022-08-30T23:43:29.233Z,99681.13
2022-08-30T23:45:56.571Z,99698.50
2022-08-30T23:48:23.063Z,99689.94
2022-08-30T23:50:49.379Z,99698.91
2022-08-30T23:53:15.974Z,99694.81
2022-08-30T23:55:42.349Z,99688.34
2022-08-30T23:58:08.731Z,99698.13
